createdAt,value
2023-01-29T00:03:46.655Z,11.52
2023-01-29T00:08:49.091Z,11.13
2023-01-29T00:13:52.698Z,15.35
2023-01-29T00:18:55.316Z,10.07
2023-01-29T00:23:58.173Z,14.38
2023-01-29T00:29:03.639Z,11.10
2023-01-29T00:34:06.128Z,13.20
2023-01-29T00:39:11.155Z,10.23
2023-01-29T00:44:32.582Z,12.68
2023-01-29T00:49:39.215Z,12.68
2023-01-29T00:54:41.671Z,12.75
2023-01-29T00:59:44.541Z,7.53
2023-01-29T01:04:47.080Z,9.77
2023-01-29T01:10:07.879Z,10.00
2023-01-29T01:15:10.844Z,10.65
2023-01-29T01:20:14.318Z,11.15
2023-01-29T01:25:19.129Z,9.88
2023-01-29T01:30:22.293Z,9.27
2023-01-29T01:35:24.783Z,15.80
2023-01-29T01:40:27.569Z,9.25
2023-01-29T01:45:33.342Z,12.77
2023-01-29T01:51:03.537Z,13.15
2023-01-29T01:56:10.287Z,9.07
2023-01-29T02:01:13.724Z,11.30
2023-01-29T02:06:34.817Z,7.95
2023-01-29T02:11:38.767Z,9.52
2023-01-29T02:16:41.288Z,10.10
2023-01-29T02:22:28.619Z,9.63
2023-01-29T02:27:44.890Z,7.90
2023-01-29T02:33:02.673Z,7.50
2023-01-29T02:38:29.386Z,9.75
2023-01-29T02:43:48.148Z,8.70
2023-01-29T02:49:00.514Z,10.13
2023-01-29T02:54:20.884Z,9.25
2023-01-29T02:59:34.606Z,10.35
2023-01-29T03:04:46.769Z,7.70
2023-01-29T03:09:53.294Z,9.95
2023-01-29T03:15:14.525Z,7.32
2023-01-29T03:20:29.756Z,12.30
2023-01-29T03:25:53.824Z,8.20
2023-01-29T03:31:21.118Z,11.27
2023-01-29T03:36:45.673Z,6.05
2023-01-29T03:42:11.964Z,8.77
2023-01-29T03:47:27.418Z,7.68
2023-01-29T03:53:02.238Z,6.97
2023-01-29T03:58:35.342Z,8.00
2023-01-29T04:03:42.488Z,15.55
2023-01-29T04:08:56.323Z,14.13
2023-01-29T04:13:59.894Z,11.73
2023-01-29T04:19:03.077Z,11.65
2023-01-29T04:24:13.872Z,8.95
2023-01-29T04:29:31.073Z,9.68
2023-01-29T04:35:23.134Z,11.82
2023-01-29T04:40:51.286Z,11.88
2023-01-29T04:46:41.146Z,11.73
2023-01-29T04:51:55.459Z,12.32
2023-01-29T04:57:04.673Z,11.43
2023-01-29T05:02:10.904Z,12.38
2023-01-29T05:07:16.393Z,11.43
2023-01-29T05:12:19.448Z,7.97
2023-01-29T05:17:22.117Z,8.88
2023-01-29T05:22:25.020Z,12.05
2023-01-29T05:27:53.515Z,10.77
2023-01-29T05:32:55.939Z,8.60
2023-01-29T05:37:58.953Z,8.57
2023-01-29T05:43:01.706Z,11.95
2023-01-29T05:48:04.373Z,9.00
2023-01-29T05:53:06.775Z,12.52
2023-01-29T05:58:09.235Z,9.02
2023-01-29T06:03:11.742Z,14.45
2023-01-29T06:08:14.248Z,9.68
2023-01-29T06:13:16.699Z,14.63
2023-01-29T06:18:19.376Z,9.73
2023-01-29T06:23:21.827Z,13.13
2023-01-29T06:28:24.469Z,10.32
2023-01-29T06:33:26.988Z,10.05
2023-01-29T06:38:30.263Z,12.02
2023-01-29T06:43:32.756Z,13.82
2023-01-29T06:48:35.779Z,12.73
2023-01-29T06:53:39.668Z,10.95
2023-01-29T06:58:43.808Z,18.95
2023-01-29T07:03:51.087Z,14.63
2023-01-29T07:08:53.556Z,13.38
2023-01-29T07:13:55.985Z,6.25
2023-01-29T07:18:58.537Z,10.82
2023-01-29T07:24:01.086Z,8.32
2023-01-29T07:29:05.446Z,8.07
2023-01-29T07:34:07.917Z,8.68
2023-01-29T07:39:10.372Z,7.20
2023-01-29T07:44:12.912Z,6.05
2023-01-29T07:49:15.975Z,9.05
2023-01-29T07:54:18.422Z,10.73
2023-01-29T07:59:20.889Z,6.90
2023-01-29T08:04:23.408Z,5.20
2023-01-29T08:09:25.873Z,7.75
2023-01-29T08:14:28.437Z,11.75
2023-01-29T08:19:30.962Z,12.70
2023-01-29T08:24:47.669Z,7.90
2023-01-29T08:29:56.501Z,8.55
2023-01-29T08:34:59.773Z,8.45
2023-01-29T08:40:09.797Z,9.10
2023-01-29T08:45:12.389Z,8.40
2023-01-29T08:50:16.232Z,10.02
2023-01-29T08:55:20.260Z,9.85
2023-01-29T09:00:23.847Z,12.02
2023-01-29T09:05:26.389Z,8.63
2023-01-29T09:10:28.899Z,16.83
2023-01-29T09:15:31.448Z,12.77
2023-01-29T09:20:38.151Z,12.50
2023-01-29T09:25:44.465Z,11.82
2023-01-29T09:30:47.734Z,11.45
2023-01-29T09:36:01.113Z,14.10
2023-01-29T09:41:27.708Z,12.48
2023-01-29T09:46:30.130Z,11.25
2023-01-29T09:52:01.689Z,12.52
2023-01-29T09:57:16.035Z,13.55
2023-01-29T10:03:00.084Z,10.57
2023-01-29T10:08:17.143Z,8.98
2023-01-29T10:13:19.467Z,11.20
2023-01-29T10:18:41.923Z,9.52
2023-01-29T10:23:51.200Z,8.88
2023-01-29T10:28:57.688Z,7.85
2023-01-29T10:34:27.577Z,13.63
2023-01-29T10:39:32.885Z,14.50
2023-01-29T10:44:38.311Z,13.27
2023-01-29T10:55:06.864Z,15.13
2023-01-29T11:00:24.244Z,11.25
2023-01-29T11:05:36.670Z,11.77
2023-01-29T11:10:46.482Z,9.32
2023-01-29T11:15:53.190Z,13.18
2023-01-29T11:21:05.008Z,14.27
2023-01-29T11:26:13.647Z,13.13
2023-01-29T11:31:18.573Z,11.38
2023-01-29T11:36:39.043Z,12.93
2023-01-29T11:42:13.534Z,13.95
2023-01-29T11:47:16.619Z,12.40
2023-01-29T11:52:25.357Z,11.15
2023-01-29T11:57:31.668Z,17.83
2023-01-29T12:02:39.023Z,12.20
2023-01-29T12:07:52.147Z,9.65
2023-01-29T12:13:21.637Z,14.93
2023-01-29T12:18:35.748Z,11.23
2023-01-29T12:24:07.328Z,15.73
2023-01-29T12:29:18.560Z,13.15
2023-01-29T12:34:35.028Z,13.90
2023-01-29T12:39:37.880Z,14.55
2023-01-29T12:44:49.588Z,8.75
2023-01-29T12:50:00.665Z,11.52
2023-01-29T12:55:24.675Z,11.95
2023-01-29T13:00:43.933Z,13.35
2023-01-29T13:06:03.542Z,11.95
2023-01-29T13:11:20.071Z,13.20
2023-01-29T13:16:31.301Z,11.32
2023-01-29T13:21:44.364Z,12.98
2023-01-29T13:26:50.707Z,12.50
2023-01-29T13:31:55.821Z,16.17
2023-01-29T13:37:01.953Z,16.05
2023-01-29T13:42:26.612Z,16.27
2023-01-29T13:53:02.441Z,14.43
2023-01-29T13:58:27.787Z,11.85
2023-01-29T14:03:45.037Z,12.90
2023-01-29T14:08:52.650Z,12.60
2023-01-29T14:13:55.147Z,12.48
2023-01-29T14:19:01.016Z,15.73
2023-01-29T14:24:17.686Z,15.77
2023-01-29T14:29:34.344Z,13.45
2023-01-29T14:34:49.395Z,14.30
2023-01-29T14:39:59.154Z,20.58
2023-01-29T14:45:08.273Z,16.40
2023-01-29T14:50:19.540Z,13.45
2023-01-29T14:55:57.097Z,13.48
2023-01-29T15:06:05.226Z,13.55
2023-01-29T15:11:34.130Z,17.27
2023-01-29T15:17:17.617Z,15.50
2023-01-29T15:22:29.343Z,18.15
2023-01-29T15:27:32.327Z,15.48
2023-01-29T15:32:37.860Z,20.48
2023-01-29T15:37:40.471Z,23.42
2023-01-29T15:42:48.842Z,29.67
2023-01-29T15:47:53.068Z,25.02
2023-01-29T15:53:00.474Z,31.95
2023-01-29T15:58:03.000Z,21.50
2023-01-29T16:03:18.424Z,27.98
2023-01-29T16:08:26.495Z,30.98
2023-01-29T16:13:32.099Z,27.00
2023-01-29T16:18:39.512Z,32.28
2023-01-29T16:23:51.737Z,22.42
2023-01-29T16:28:55.522Z,29.35
2023-01-29T16:33:59.701Z,20.95
2023-01-29T16:39:05.857Z,19.98
2023-01-29T16:44:17.151Z,22.98
2023-01-29T16:49:28.894Z,25.27
2023-01-29T16:54:31.416Z,14.70
2023-01-29T16:59:40.165Z,32.63
2023-01-29T17:04:43.950Z,35.13
2023-01-29T17:09:53.915Z,32.17
2023-01-29T17:15:00.559Z,13.32
2023-01-29T17:20:23.713Z,20.45
2023-01-29T17:25:28.676Z,17.23
2023-01-29T17:30:37.593Z,12.13
2023-01-29T17:35:42.525Z,18.38
2023-01-29T17:40:54.133Z,30.65
2023-01-29T17:45:56.868Z,27.38
2023-01-29T17:51:03.032Z,21.90
2023-01-29T18:01:07.914Z,21.98
2023-01-29T18:06:20.547Z,20.65
2023-01-29T18:11:23.208Z,21.95
2023-01-29T18:16:26.300Z,19.70
2023-01-29T18:21:28.790Z,20.10
2023-01-29T18:26:32.311Z,19.45
2023-01-29T18:31:34.912Z,16.90
2023-01-29T18:36:37.489Z,20.30
2023-01-29T18:41:41.123Z,17.83
2023-01-29T18:46:43.733Z,18.83
2023-01-29T18:51:46.275Z,20.17
2023-01-29T18:57:13.248Z,19.40
2023-01-29T19:02:17.714Z,19.70
2023-01-29T19:07:20.324Z,17.52
2023-01-29T19:12:23.407Z,18.63
2023-01-29T19:17:26.354Z,21.23
2023-01-29T19:22:29.794Z,24.90
2023-01-29T19:27:33.646Z,17.48
2023-01-29T19:32:36.217Z,11.60
2023-01-29T19:37:38.692Z,17.88
2023-01-29T19:42:41.532Z,13.27
2023-01-29T19:47:44.789Z,17.15
2023-01-29T19:52:51.533Z,21.27
2023-01-29T19:57:54.791Z,19.83
2023-01-29T20:02:57.231Z,20.63
2023-01-29T20:07:59.745Z,20.52
2023-01-29T20:13:06.269Z,19.13
2023-01-29T20:18:12.256Z,19.38
2023-01-29T20:23:22.285Z,16.63
